Time;durP1;ratioP1;P1;durP2;ratioP2;P2;SDS_P1;SDS_P2;PMS_P1;PMS_P2;Temp;Humidity;BMP_temperature;BMP_pressure;BME280_temperature;BME280_humidity;BME280_pressure;Samples;Min_cycle;Max_cycle;Signal;HPM_P1;HPM_P2
2020/12/04 00:00:15;;;;;;;40.40;12.67;;;2.00;99.90;;;;;;5040002;28;20173;-80
2020/12/04 00:02:40;;;;;;;27.65;11.93;;;1.70;99.90;;;;;;5055013;28;20216;-80
2020/12/04 00:05:06;;;;;;;33.67;12.73;;;1.90;99.90;;;;;;5021131;28;20538;-80
2020/12/04 00:07:32;;;;;;;27.45;11.05;;;2.00;99.90;;;;;;5022130;28;20272;-80
2020/12/04 00:09:58;;;;;;;22.90;10.90;;;2.00;99.90;;;;;;5045398;28;20177;-80
2020/12/04 00:12:24;;;;;;;19.20;10.30;;;1.90;99.90;;;;;;5014314;28;20412;-80
2020/12/04 00:14:50;;;;;;;24.38;11.63;;;1.80;99.90;;;;;;5046374;28;20272;-80
2020/12/04 00:17:18;;;;;;;19.87;9.30;;;1.80;99.90;;;;;;5063392;28;20188;-81
2020/12/04 00:19:44;;;;;;;23.65;10.52;;;1.70;99.90;;;;;;5065461;28;20416;-81
2020/12/04 00:22:10;;;;;;;29.10;11.00;;;1.80;99.90;;;;;;5050048;28;20666;-80
2020/12/04 00:24:35;;;;;;;26.67;11.67;;;1.80;99.90;;;;;;5065266;28;20723;-81
2020/12/04 00:27:01;;;;;;;24.90;9.90;;;1.80;99.90;;;;;;5065381;28;20544;-81
2020/12/04 00:29:30;;;;;;;23.53;11.77;;;1.90;99.90;;;;;;5048129;28;20439;-80
2020/12/04 00:31:57;;;;;;;24.48;10.10;;;1.80;99.90;;;;;;5044412;28;20173;-80
2020/12/04 00:34:26;;;;;;;28.13;10.77;;;1.80;99.90;;;;;;5039449;28;20204;-79
2020/12/04 00:36:52;;;;;;;24.38;11.25;;;1.80;99.90;;;;;;5041438;28;20524;-79
2020/12/04 00:39:17;;;;;;;25.67;10.93;;;1.80;99.90;;;;;;5047434;28;20204;-80
2020/12/04 00:41:44;;;;;;;27.00;14.57;;;1.70;99.90;;;;;;5062216;28;20174;-80
2020/12/04 00:44:10;;;;;;;25.60;10.95;;;1.60;99.90;;;;;;5044580;28;20416;-79
2020/12/04 00:46:39;;;;;;;18.83;10.00;;;1.80;99.90;;;;;;5059134;28;20201;-79
2020/12/04 00:49:05;;;;;;;19.85;8.98;;;1.60;99.90;;;;;;5056741;28;20200;-80
2020/12/04 00:51:31;;;;;;;22.42;11.23;;;1.70;99.90;;;;;;5058285;28;20178;-79
2020/12/04 00:53:58;;;;;;;15.32;9.60;;;1.80;99.90;;;;;;5023784;28;20170;-79
2020/12/04 00:56:30;;;;;;;22.38;9.25;;;1.70;99.90;;;;;;5038687;28;20170;-79
2020/12/04 00:58:56;;;;;;;24.00;9.93;;;1.70;99.90;;;;;;5038148;28;20193;-80
2020/12/04 01:01:21;;;;;;;20.77;8.87;;;1.70;99.90;;;;;;5004038;28;20212;-80
2020/12/04 01:03:50;;;;;;;18.40;7.90;;;1.70;99.90;;;;;;5036992;28;20204;-80
2020/12/04 01:06:16;;;;;;;21.45;9.55;;;1.60;99.90;;;;;;5037259;28;20255;-80
2020/12/04 01:08:42;;;;;;;19.77;9.90;;;1.80;99.90;;;;;;5038014;28;20193;-79
2020/12/04 01:11:08;;;;;;;31.88;11.43;;;1.70;99.90;;;;;;5041406;28;20173;-80
2020/12/04 01:13:33;;;;;;;22.00;10.57;;;1.50;99.90;;;;;;5060083;28;20188;-79
2020/12/04 01:15:59;;;;;;;18.53;9.50;;;1.50;99.90;;;;;;5041431;28;20197;-80
2020/12/04 01:18:25;;;;;;;22.97;10.20;;;1.70;99.90;;;;;;5039135;28;20235;-78
2020/12/04 01:20:51;;;;;;;17.27;9.38;;;1.70;99.90;;;;;;5039736;28;20665;-79
2020/12/04 01:23:19;;;;;;;24.07;10.00;;;1.40;99.90;;;;;;5039265;28;20235;-79
2020/12/04 01:25:45;;;;;;;20.17;9.70;;;1.60;99.90;;;;;;5042677;28;20194;-80
2020/12/04 01:28:11;;;;;;;26.93;10.73;;;1.60;99.90;;;;;;5057506;28;20232;-80
2020/12/04 01:30:36;;;;;;;14.47;8.50;;;1.60;99.90;;;;;;5040996;28;20180;-80
2020/12/04 01:33:02;;;;;;;20.53;9.07;;;1.60;99.90;;;;;;5043412;28;20178;-80
2020/12/04 01:35:28;;;;;;;23.77;9.43;;;1.60;99.90;;;;;;5030799;28;20196;-80
2020/12/04 01:37:53;;;;;;;18.77;9.27;;;1.70;99.90;;;;;;5044341;28;20205;-80
2020/12/04 01:40:20;;;;;;;26.33;10.70;;;1.60;99.90;;;;;;5045993;28;20178;-80
2020/12/04 01:42:45;;;;;;;21.73;10.40;;;1.60;99.90;;;;;;5062126;28;20178;-79
2020/12/04 01:45:11;;;;;;;17.57;10.03;;;1.60;99.90;;;;;;5061595;28;20207;-80
2020/12/04 01:47:37;;;;;;;16.73;8.67;;;1.60;99.90;;;;;;5058854;28;20197;-80
2020/12/04 01:50:03;;;;;;;15.57;7.57;;;1.50;99.90;;;;;;5041982;28;20174;-80
2020/12/04 01:52:29;;;;;;;18.85;8.65;;;1.40;99.90;;;;;;5041294;28;20182;-80
2020/12/04 01:54:54;;;;;;;28.73;9.80;;;1.60;99.90;;;;;;5042667;28;20200;-80
2020/12/04 01:57:26;;;;;;;21.87;9.20;;;1.60;99.90;;;;;;5044654;28;20211;-80
2020/12/04 01:59:52;;;;;;;22.05;9.90;;;1.60;99.90;;;;;;5042843;28;20401;-80
2020/12/04 02:02:20;;;;;;;17.73;9.00;;;1.50;99.90;;;;;;5040279;28;20191;-80
2020/12/04 02:04:47;;;;;;;31.30;11.98;;;1.50;99.90;;;;;;5058409;28;20286;-80
2020/12/04 02:07:39;;;;;;;21.80;8.88;;;1.60;99.90;;;;;;5057888;28;20188;-80
2020/12/04 02:10:16;;;;;;;20.42;10.98;;;1.70;99.90;;;;;;5042297;28;20173;-80
2020/12/04 02:12:42;;;;;;;22.35;10.73;;;1.60;99.90;;;;;;5040503;28;20203;-80
2020/12/04 02:15:11;;;;;;;28.43;11.00;;;1.50;99.90;;;;;;5056490;28;20200;-82
2020/12/04 02:17:37;;;;;;;29.38;10.13;;;1.50;99.90;;;;;;5007733;28;20416;-80
2020/12/04 02:20:04;;;;;;;23.85;9.95;;;1.50;99.90;;;;;;5037387;28;20173;-79
2020/12/04 02:22:34;;;;;;;22.23;10.75;;;1.50;99.90;;;;;;5053643;28;20248;-79
2020/12/04 02:25:00;;;;;;;23.13;10.65;;;1.60;99.90;;;;;;5053021;28;20216;-80
2020/12/04 02:27:26;;;;;;;21.85;10.52;;;1.50;99.90;;;;;;5054209;28;20720;-80
2020/12/04 02:29:51;;;;;;;25.23;10.97;;;1.50;99.90;;;;;;5037513;28;20232;-80
2020/12/04 02:32:17;;;;;;;16.70;8.93;;;1.60;99.90;;;;;;5054386;28;20180;-79
2020/12/04 02:34:43;;;;;;;21.40;12.13;;;1.60;99.90;;;;;;5036826;28;20246;-80
2020/12/04 02:37:09;;;;;;;19.10;10.97;;;1.50;99.90;;;;;;5052527;28;20158;-80
2020/12/04 02:39:36;;;;;;;16.92;9.43;;;1.40;99.90;;;;;;5066259;28;20181;-80
2020/12/04 02:42:03;;;;;;;23.98;10.80;;;1.50;99.90;;;;;;5054176;28;20173;-79
2020/12/04 02:44:29;;;;;;;27.48;13.10;;;1.50;99.90;;;;;;5054284;28;20676;-79
2020/12/04 02:46:55;;;;;;;22.67;11.70;;;1.50;99.90;;;;;;5039013;28;20179;-79
2020/12/04 02:49:21;;;;;;;20.17;9.67;;;1.60;99.90;;;;;;5056007;28;20205;-79
2020/12/04 02:51:50;;;;;;;23.97;11.37;;;1.70;99.90;;;;;;5056317;28;20421;-79
2020/12/04 02:54:17;;;;;;;25.65;9.20;;;1.50;99.90;;;;;;5059854;28;20205;-80
2020/12/04 02:56:43;;;;;;;32.30;12.68;;;1.50;99.90;;;;;;5059020;28;20174;-80
2020/12/04 02:59:10;;;;;;;23.48;9.63;;;1.50;99.90;;;;;;5058682;28;20269;-80
2020/12/04 03:01:36;;;;;;;25.23;12.30;;;1.60;99.90;;;;;;5058626;28;20223;-79
2020/12/04 03:04:03;;;;;;;20.70;12.23;;;1.50;99.90;;;;;;5025392;28;20220;-80
2020/12/04 03:06:29;;;;;;;27.48;12.27;;;1.60;99.90;;;;;;5042173;28;20178;-80
2020/12/04 03:08:54;;;;;;;25.13;10.53;;;1.60;99.90;;;;;;5041697;28;20497;-80
2020/12/04 03:11:21;;;;;;;29.23;10.50;;;1.60;99.90;;;;;;5022877;28;20495;-80
2020/12/04 03:13:48;;;;;;;23.00;10.10;;;1.70;99.90;;;;;;5041087;28;20467;-80
2020/12/04 03:16:15;;;;;;;26.98;10.48;;;1.50;99.90;;;;;;5044581;28;20216;-81
2020/12/04 03:18:41;;;;;;;27.17;11.05;;;1.50;99.90;;;;;;5041706;28;20178;-80
2020/12/04 03:21:07;;;;;;;15.63;9.98;;;1.70;99.90;;;;;;5041903;28;20231;-79
2020/12/04 03:23:33;;;;;;;21.85;11.82;;;1.70;99.90;;;;;;5061078;28;20629;-80
2020/12/04 03:25:58;;;;;;;21.13;9.60;;;1.70;99.90;;;;;;5060547;28;20197;-80
2020/12/04 03:28:24;;;;;;;23.93;11.10;;;1.60;99.90;;;;;;5044875;28;20507;-80
2020/12/04 03:30:53;;;;;;;23.03;11.27;;;1.50;99.90;;;;;;5025125;28;20177;-80
2020/12/04 03:33:19;;;;;;;25.02;12.23;;;1.60;99.90;;;;;;5042704;28;20417;-80
2020/12/04 03:35:45;;;;;;;16.98;9.85;;;1.60;99.90;;;;;;5057918;28;20193;-80
2020/12/04 03:38:10;;;;;;;18.90;8.70;;;1.60;99.90;;;;;;5025651;28;20196;-80
2020/12/04 03:40:40;;;;;;;20.70;10.47;;;1.60;99.90;;;;;;5025552;28;20521;-80
2020/12/04 03:43:06;;;;;;;20.20;10.20;;;1.60;99.90;;;;;;5059012;28;20181;-79
2020/12/04 03:45:32;;;;;;;21.10;10.60;;;1.60;99.90;;;;;;5019184;28;20546;-79
2020/12/04 03:47:57;;;;;;;25.97;13.33;;;1.50;99.90;;;;;;5053554;28;20200;-80
2020/12/04 03:50:23;;;;;;;29.10;11.27;;;1.60;99.90;;;;;;5052388;28;20169;-80
2020/12/04 03:52:49;;;;;;;21.90;11.00;;;1.60;99.90;;;;;;5053119;28;20208;-81
2020/12/04 03:55:15;;;;;;;20.40;10.57;;;1.50;99.90;;;;;;5037305;28;20196;-80
2020/12/04 03:57:40;;;;;;;26.40;11.90;;;1.70;99.90;;;;;;5004123;28;20177;-80
2020/12/04 04:00:07;;;;;;;22.40;10.50;;;1.60;99.90;;;;;;5053272;28;20204;-80
2020/12/04 04:02:33;;;;;;;18.45;9.90;;;1.60;99.90;;;;;;5036106;28;20169;-80
2020/12/04 04:04:59;;;;;;;18.60;9.30;;;1.60;99.90;;;;;;5037312;28;20238;-80
2020/12/04 04:07:24;;;;;;;29.23;11.73;;;1.80;99.90;;;;;;5036618;28;20417;-80
2020/12/04 04:09:53;;;;;;;15.93;9.00;;;1.70;99.90;;;;;;5036063;28;20296;-80
2020/12/04 04:12:19;;;;;;;22.05;10.65;;;1.80;99.90;;;;;;5036194;28;20541;-80
2020/12/04 04:14:44;;;;;;;19.63;10.87;;;1.70;99.90;;;;;;5036108;28;20193;-80
2020/12/04 04:17:10;;;;;;;26.50;13.23;;;1.70;99.90;;;;;;5053716;28;20205;-80
2020/12/04 04:19:45;;;;;;;23.90;11.43;;;1.70;99.90;;;;;;5037215;28;20204;-80
2020/12/04 04:22:11;;;;;;;23.00;10.77;;;1.80;99.90;;;;;;5035551;28;20224;-80
2020/12/04 04:24:37;;;;;;;24.53;10.10;;;1.60;99.90;;;;;;5037242;28;20283;-80
2020/12/04 04:27:03;;;;;;;22.90;10.80;;;1.60;99.90;;;;;;5036415;28;20424;-80
2020/12/04 04:29:28;;;;;;;25.73;10.45;;;1.70;99.90;;;;;;5050123;28;20190;-80
2020/12/04 04:31:54;;;;;;;26.50;11.63;;;1.80;99.90;;;;;;5049266;28;20189;-79
2020/12/04 04:34:20;;;;;;;19.23;9.77;;;1.70;99.90;;;;;;5049618;28;20206;-79
2020/12/04 04:36:46;;;;;;;19.48;9.90;;;1.90;99.90;;;;;;5033064;28;20174;-79
2020/12/04 04:39:12;;;;;;;21.63;11.07;;;1.80;99.90;;;;;;5033474;28;20204;-80
2020/12/04 04:41:38;;;;;;;21.23;10.10;;;1.80;99.90;;;;;;5034024;28;20185;-79
2020/12/04 04:44:03;;;;;;;19.77;9.27;;;1.90;99.90;;;;;;5034053;28;20239;-79
2020/12/04 04:46:46;;;;;;;24.33;11.53;;;1.70;99.90;;;;;;5037388;28;20488;-80
2020/12/04 04:49:26;;;;;;;18.42;9.68;;;1.90;99.90;;;;;;5053658;28;20196;-79
2020/12/04 04:51:54;;;;;;;15.13;8.05;;;1.70;99.90;;;;;;5035394;28;20161;-80
2020/12/04 04:54:21;;;;;;;22.52;11.05;;;1.80;99.90;;;;;;5052728;28;20563;-80
2020/12/04 04:56:48;;;;;;;19.20;11.18;;;1.70;99.90;;;;;;5037259;28;20174;-80
2020/12/04 04:59:13;;;;;;;22.42;10.45;;;1.70;99.90;;;;;;5053643;28;20247;-79
2020/12/04 05:01:39;;;;;;;19.73;10.20;;;1.70;99.90;;;;;;5034820;28;20181;-80
2020/12/04 05:04:05;;;;;;;27.67;13.33;;;1.90;99.90;;;;;;5002150;28;20584;-80
2020/12/04 05:06:35;;;;;;;28.07;10.73;;;1.80;99.90;;;;;;5037566;28;20170;-80
2020/12/04 05:09:08;;;;;;;24.45;12.50;;;1.80;99.90;;;;;;5055524;28;20200;-80
2020/12/04 05:11:34;;;;;;;20.50;9.07;;;1.90;99.90;;;;;;5038292;28;20170;-80
2020/12/04 05:14:13;;;;;;;20.98;10.60;;;2.00;99.90;;;;;;5039787;28;20671;-80
2020/12/04 05:16:43;;;;;;;22.92;10.50;;;1.80;99.90;;;;;;5038740;28;20248;-79
2020/12/04 05:19:09;;;;;;;27.10;12.35;;;2.00;99.90;;;;;;5039914;28;20162;-79
2020/12/04 05:21:37;;;;;;;19.73;10.90;;;1.90;99.90;;;;;;5039675;28;20169;-80
2020/12/04 05:24:06;;;;;;;17.38;9.10;;;1.90;99.90;;;;;;5021397;28;20173;-79
2020/12/04 05:26:34;;;;;;;20.85;10.48;;;1.80;99.90;;;;;;5020697;28;20180;-80
2020/12/04 05:29:02;;;;;;;22.23;9.10;;;1.90;99.90;;;;;;5037678;28;20747;-79
2020/12/04 05:31:30;;;;;;;20.17;11.13;;;2.00;99.90;;;;;;5039843;28;20185;-78
2020/12/04 05:33:59;;;;;;;28.00;11.70;;;1.90;99.90;;;;;;5039481;28;20186;-80
2020/12/04 05:36:30;;;;;;;16.60;10.70;;;2.00;99.90;;;;;;5041156;28;20177;-80
2020/12/04 05:38:57;;;;;;;24.45;10.23;;;1.90;99.90;;;;;;5055781;28;20185;-80
2020/12/04 05:41:23;;;;;;;21.05;11.55;;;1.90;99.90;;;;;;5036938;28;20181;-79
2020/12/04 05:43:51;;;;;;;21.70;11.15;;;2.00;99.90;;;;;;5039258;28;20174;-80
2020/12/04 05:46:23;;;;;;;28.85;13.02;;;2.00;99.90;;;;;;5039402;28;20239;-79
2020/12/04 05:49:09;;;;;;;23.25;10.98;;;2.10;99.90;;;;;;5039305;28;20296;-79
2020/12/04 05:51:37;;;;;;;18.25;9.40;;;2.10;99.90;;;;;;5059538;28;20276;-79
2020/12/04 05:54:04;;;;;;;16.45;9.23;;;2.10;99.90;;;;;;5053439;28;20176;-79
2020/12/04 05:56:34;;;;;;;23.45;11.90;;;2.20;99.90;;;;;;5039193;28;20197;-79
2020/12/04 05:59:07;;;;;;;22.50;10.60;;;2.00;99.90;;;;;;5037301;28;20189;-79
2020/12/04 06:01:32;;;;;;;22.88;10.63;;;2.20;99.90;;;;;;5052663;28;20617;-80
2020/12/04 06:03:58;;;;;;;26.37;11.00;;;2.10;99.90;;;;;;5038313;28;20178;-80
2020/12/04 06:06:32;;;;;;;23.90;10.73;;;2.30;99.90;;;;;;5053485;28;20177;-80
2020/12/04 06:08:59;;;;;;;18.85;9.70;;;2.20;99.90;;;;;;5037762;28;20702;-80
2020/12/04 06:11:29;;;;;;;19.63;10.38;;;2.20;99.90;;;;;;5036472;28;20166;-79
2020/12/04 06:13:57;;;;;;;16.30;9.30;;;2.20;99.90;;;;;;5050975;28;20166;-79
2020/12/04 06:16:23;;;;;;;20.70;8.30;;;2.10;99.90;;;;;;5034261;28;20196;-80
2020/12/04 06:18:49;;;;;;;20.50;10.83;;;2.20;99.90;;;;;;5035858;28;20170;-78
2020/12/04 06:21:14;;;;;;;18.70;10.80;;;2.20;99.90;;;;;;5035625;28;20185;-79
2020/12/04 06:24:04;;;;;;;19.20;11.00;;;2.40;99.90;;;;;;5039514;28;20178;-80
2020/12/04 06:26:47;;;;;;;16.95;8.98;;;2.30;99.90;;;;;;5054483;28;20240;-81
2020/12/04 06:29:13;;;;;;;24.95;9.65;;;2.30;99.90;;;;;;5039521;28;20181;-80
2020/12/04 06:31:39;;;;;;;16.85;10.20;;;2.30;99.90;;;;;;5036583;28;20224;-80
2020/12/04 06:34:15;;;;;;;16.93;9.70;;;2.40;99.90;;;;;;5035947;28;20169;-80
2020/12/04 06:36:42;;;;;;;15.45;9.63;;;2.50;99.90;;;;;;5035864;28;20188;-80
2020/12/04 06:39:26;;;;;;;17.83;9.73;;;2.60;99.90;;;;;;5035828;28;20583;-80
2020/12/04 06:41:52;;;;;;;22.92;10.50;;;2.40;99.90;;;;;;5033923;28;20181;-80
2020/12/04 06:44:31;;;;;;;20.43;9.83;;;2.60;99.90;;;;;;5018489;28;20228;-82
2020/12/04 06:46:59;;;;;;;12.82;8.15;;;2.60;99.90;;;;;;5019502;28;20181;-81
2020/12/04 06:49:43;;;;;;;21.10;10.80;;;2.70;99.90;;;;;;5018077;28;20197;-78
2020/12/04 06:52:24;;;;;;;16.10;9.82;;;2.70;99.90;;;;;;5013318;28;20193;-79
2020/12/04 06:54:51;;;;;;;14.95;9.02;;;2.80;99.90;;;;;;5025028;28;20235;-79
2020/12/04 06:57:21;;;;;;;19.58;10.63;;;2.70;99.90;;;;;;5037016;28;20324;-79
2020/12/04 06:59:47;;;;;;;17.27;10.13;;;2.70;99.90;;;;;;5033206;28;20556;-79
2020/12/04 07:02:20;;;;;;;16.73;9.77;;;2.80;99.90;;;;;;5032962;28;20232;-79
2020/12/04 07:04:48;;;;;;;17.90;9.68;;;2.70;99.90;;;;;;5033795;28;20448;-79
2020/12/04 07:07:21;;;;;;;18.00;10.38;;;2.90;99.90;;;;;;5017527;28;20201;-78
2020/12/04 07:10:14;;;;;;;19.58;10.00;;;2.80;99.90;;;;;;5034644;28;20216;-79
2020/12/04 07:12:41;;;;;;;22.98;11.98;;;2.90;99.90;;;;;;5035156;28;20668;-79
2020/12/04 07:15:07;;;;;;;17.50;9.60;;;2.80;99.90;;;;;;5034266;28;20202;-80
2020/12/04 07:17:33;;;;;;;36.80;11.90;;;2.80;99.90;;;;;;5034334;28;20204;-80
2020/12/04 07:19:59;;;;;;;15.17;8.67;;;2.90;99.90;;;;;;5033790;28;20166;-80
2020/12/04 07:22:26;;;;;;;20.85;10.38;;;2.80;99.90;;;;;;5016201;28;20178;-78
2020/12/04 07:24:53;;;;;;;18.27;9.90;;;2.90;99.90;;;;;;5032357;28;20193;-79
2020/12/04 07:27:24;;;;;;;21.55;10.18;;;3.00;99.90;;;;;;5033582;28;20173;-80
2020/12/04 07:29:53;;;;;;;15.63;9.40;;;2.80;99.90;;;;;;5034829;28;20615;-78
2020/12/04 07:32:23;;;;;;;19.23;9.98;;;3.00;99.90;;;;;;5033307;28;20185;-79
2020/12/04 07:34:50;;;;;;;21.77;10.43;;;3.00;99.90;;;;;;5034186;28;20190;-79
2020/12/04 07:37:16;;;;;;;20.77;11.30;;;2.90;99.90;;;;;;5037552;28;20256;-78
2020/12/04 07:39:44;;;;;;;17.77;9.50;;;2.90;99.90;;;;;;5017830;28;20192;-78
2020/12/04 07:42:11;;;;;;;20.08;11.13;;;3.00;99.90;;;;;;5039492;28;20667;-77
2020/12/04 07:44:39;;;;;;;20.27;9.70;;;3.00;99.90;;;;;;5035208;28;20205;-78
2020/12/04 07:47:08;;;;;;;94.47;19.50;;;3.20;99.90;;;;;;5035632;28;20178;-79
2020/12/04 07:49:36;;;;;;;37.83;12.82;;;3.30;99.90;;;;;;5017965;28;20614;-78
2020/12/04 07:52:09;;;;;;;24.45;10.70;;;3.50;99.90;;;;;;5019694;28;20173;-78
2020/12/04 07:54:35;;;;;;;20.38;9.15;;;3.30;99.90;;;;;;5034677;28;20223;-78
2020/12/04 07:57:01;;;;;;;25.42;9.38;;;3.40;99.90;;;;;;5035292;28;20170;-78
2020/12/04 07:59:32;;;;;;;15.43;9.80;;;3.80;99.90;;;;;;5039317;28;20196;-80
2020/12/04 08:02:05;;;;;;;15.60;9.82;;;3.90;99.90;;;;;;5034611;28;20219;-79
2020/12/04 08:04:33;;;;;;;16.60;10.55;;;4.00;99.90;;;;;;5035229;28;20218;-78
2020/12/04 08:07:12;;;;;;;18.45;10.18;;;4.20;99.90;;;;;;5039025;28;20241;-79
2020/12/04 08:09:45;;;;;;;21.67;12.30;;;3.90;99.90;;;;;;5038608;28;20699;-79
2020/12/04 08:12:12;;;;;;;17.65;10.43;;;3.70;99.90;;;;;;5039223;28;20168;-79
2020/12/04 08:14:40;;;;;;;19.42;10.32;;;3.70;99.90;;;;;;5037321;28;20205;-78
2020/12/04 08:17:07;;;;;;;20.02;11.00;;;3.60;99.90;;;;;;5035441;28;20187;-78
2020/12/04 08:19:35;;;;;;;23.10;11.27;;;3.60;99.90;;;;;;5033196;28;20205;-79
2020/12/04 08:22:08;;;;;;;21.65;10.60;;;3.40;99.90;;;;;;5035464;28;20209;-81
2020/12/04 08:24:39;;;;;;;18.20;9.23;;;3.60;99.90;;;;;;5009250;28;20201;-81
2020/12/04 08:27:16;;;;;;;23.08;11.70;;;3.50;99.90;;;;;;5036467;28;20264;-80
2020/12/04 08:29:46;;;;;;;14.93;7.85;;;3.60;99.90;;;;;;5037298;28;20675;-79
2020/12/04 08:32:21;;;;;;;21.48;9.73;;;3.50;99.90;;;;;;5019774;28;20225;-80
2020/12/04 08:34:48;;;;;;;24.42;10.13;;;3.60;99.90;;;;;;5038645;28;20184;-82
2020/12/04 08:37:16;;;;;;;18.35;9.15;;;3.60;99.90;;;;;;5037762;28;20650;-79
2020/12/04 08:39:49;;;;;;;19.88;10.05;;;3.50;99.90;;;;;;5037581;28;20635;-78
2020/12/04 08:42:17;;;;;;;24.17;11.93;;;3.60;99.90;;;;;;5046315;28;20185;-78
2020/12/04 08:44:54;;;;;;;14.45;9.35;;;3.60;99.90;;;;;;5047755;28;20194;-80
2020/12/04 08:47:31;;;;;;;24.65;10.40;;;3.60;99.90;;;;;;5045732;28;20184;-79
2020/12/04 08:49:57;;;;;;;14.48;9.15;;;3.60;99.90;;;;;;5046672;28;20201;-80
2020/12/04 08:52:54;;;;;;;16.83;9.10;;;3.70;99.90;;;;;;5045040;28;20211;-78
2020/12/04 08:55:26;;;;;;;19.65;9.32;;;3.80;99.90;;;;;;5042645;28;20221;-78
2020/12/04 08:57:56;;;;;;;18.27;10.23;;;3.90;99.90;;;;;;5048435;28;20173;-79
2020/12/04 09:00:33;;;;;;;18.08;9.45;;;3.90;99.90;;;;;;5033054;28;20193;-80
2020/12/04 09:03:00;;;;;;;19.70;9.75;;;4.00;99.90;;;;;;5049301;28;20173;-80
2020/12/04 09:05:26;;;;;;;15.10;8.65;;;4.20;99.90;;;;;;5047106;28;20197;-80
2020/12/04 09:07:52;;;;;;;23.23;11.27;;;4.20;99.90;;;;;;5046449;28;20209;-79
2020/12/04 09:10:19;;;;;;;13.93;9.00;;;4.30;99.90;;;;;;5043916;28;20184;-80
2020/12/04 09:12:50;;;;;;;21.08;10.23;;;4.30;99.90;;;;;;5039001;28;20438;-81
2020/12/04 09:15:19;;;;;;;18.67;10.80;;;4.40;99.90;;;;;;5026428;28;20193;-79
2020/12/04 09:17:46;;;;;;;16.75;8.27;;;4.30;99.90;;;;;;5045580;28;20655;-81
2020/12/04 09:20:17;;;;;;;18.60;10.27;;;4.30;99.90;;;;;;5028849;28;20257;-81
2020/12/04 09:22:44;;;;;;;15.60;10.50;;;4.30;99.90;;;;;;5048357;28;20169;-81
2020/12/04 09:25:16;;;;;;;18.00;10.07;;;4.30;99.90;;;;;;5043413;28;20203;-80
2020/12/04 09:27:42;;;;;;;18.60;8.63;;;4.20;99.90;;;;;;5038930;28;20231;-81
2020/12/04 09:30:13;;;;;;;18.90;8.40;;;4.40;99.90;;;;;;5022780;28;20216;-81
2020/12/04 09:32:42;;;;;;;18.65;10.30;;;4.40;99.90;;;;;;5039222;28;20165;-81
2020/12/04 09:35:09;;;;;;;16.60;10.10;;;4.50;99.90;;;;;;5038965;28;20696;-81
2020/12/04 09:37:35;;;;;;;23.25;10.73;;;4.60;99.90;;;;;;5040938;28;20632;-80
2020/12/04 09:40:17;;;;;;;18.85;11.10;;;4.60;99.90;;;;;;5040327;28;20196;-80
2020/12/04 09:42:43;;;;;;;19.13;10.27;;;4.50;99.90;;;;;;5022579;28;20205;-81
2020/12/04 09:45:10;;;;;;;17.17;8.82;;;4.60;99.90;;;;;;5021798;28;20293;-80
2020/12/04 09:47:36;;;;;;;18.38;10.77;;;4.60;99.90;;;;;;5039192;28;20174;-81
2020/12/04 09:50:05;;;;;;;14.70;9.50;;;4.70;99.90;;;;;;5039253;28;20201;-80
2020/12/04 09:52:30;;;;;;;14.73;8.27;;;4.70;99.90;;;;;;5038304;28;20173;-80
2020/12/04 09:54:56;;;;;;;18.80;10.30;;;4.80;99.90;;;;;;5041671;28;20185;-81
2020/12/04 09:57:23;;;;;;;15.83;10.93;;;4.80;99.90;;;;;;5050884;28;20406;-80
2020/12/04 09:59:49;;;;;;;18.98;9.13;;;4.80;99.90;;;;;;5037856;28;20465;-80
2020/12/04 10:02:15;;;;;;;21.33;9.50;;;4.80;99.90;;;;;;5039723;28;20268;-81
2020/12/04 10:04:40;;;;;;;17.03;9.40;;;4.90;99.90;;;;;;5038046;28;20223;-82
2020/12/04 10:07:09;;;;;;;14.50;9.03;;;4.90;99.90;;;;;;5024646;28;20177;-81
2020/12/04 10:09:37;;;;;;;23.85;10.25;;;5.00;99.90;;;;;;5039763;28;20261;-82
2020/12/04 10:12:04;;;;;;;17.38;9.60;;;5.00;99.90;;;;;;5026857;28;20192;-82
2020/12/04 10:14:32;;;;;;;21.23;11.40;;;5.00;99.90;;;;;;5040049;28;20185;-81
2020/12/04 10:16:58;;;;;;;19.88;10.80;;;5.10;99.90;;;;;;5009876;28;20165;-81
2020/12/04 10:19:24;;;;;;;22.10;10.40;;;5.10;99.90;;;;;;5058896;28;20173;-82
2020/12/04 10:21:52;;;;;;;22.07;10.50;;;5.00;99.90;;;;;;5024562;28;20186;-82
2020/12/04 10:24:19;;;;;;;17.23;8.85;;;5.00;99.90;;;;;;5022936;28;20467;-81
2020/12/04 10:26:48;;;;;;;18.45;10.38;;;4.90;99.90;;;;;;5026236;28;20698;-82
2020/12/04 10:29:15;;;;;;;13.35;8.40;;;5.10;99.90;;;;;;5025343;28;20225;-81
2020/12/04 10:31:41;;;;;;;16.02;9.65;;;5.00;99.90;;;;;;5044357;28;20227;-82
2020/12/04 10:34:07;;;;;;;15.40;10.03;;;4.90;99.90;;;;;;5040344;28;20719;-81
2020/12/04 10:36:32;;;;;;;15.93;8.90;;;4.80;99.90;;;;;;5022496;28;20189;-81
2020/12/04 10:38:59;;;;;;;16.40;9.60;;;4.90;99.90;;;;;;5023594;28;20778;-81
2020/12/04 10:41:30;;;;;;;14.65;8.80;;;4.90;99.90;;;;;;5039024;28;20186;-81
2020/12/04 10:44:07;;;;;;;16.90;10.45;;;4.80;99.90;;;;;;5038567;28;20201;-81
2020/12/04 10:46:37;;;;;;;18.42;9.05;;;5.00;99.90;;;;;;5037073;28;20187;-82
2020/12/04 10:49:04;;;;;;;22.10;10.75;;;4.90;99.90;;;;;;5022326;28;20201;-82
2020/12/04 10:51:33;;;;;;;17.20;11.85;;;5.10;99.90;;;;;;5040164;28;20231;-82
2020/12/04 10:53:59;;;;;;;15.77;10.25;;;5.20;99.90;;;;;;5037572;28;20177;-82
2020/12/04 10:56:25;;;;;;;16.23;10.17;;;5.00;99.90;;;;;;5022814;28;20174;-82
2020/12/04 10:58:52;;;;;;;17.20;10.88;;;5.20;99.90;;;;;;5038035;28;20201;-83
2020/12/04 11:06:23;;;;;;;19.67;10.50;;;5.30;99.90;;;;;;5040496;28;20197;-83
2020/12/04 11:08:49;;;;;;;20.15;9.77;;;5.20;99.90;;;;;;5039783;28;20418;-80
2020/12/04 11:11:20;;;;;;;16.33;10.73;;;5.40;99.90;;;;;;5038115;28;20525;-79
2020/12/04 11:13:49;;;;;;;16.70;10.55;;;5.40;99.90;;;;;;5039408;28;20426;-81
2020/12/04 11:16:15;;;;;;;16.65;9.38;;;5.40;99.90;;;;;;5038643;28;20604;-80
2020/12/04 11:18:41;;;;;;;12.38;8.68;;;5.40;99.90;;;;;;5037644;28;20174;-79
2020/12/04 11:21:08;;;;;;;17.85;9.90;;;5.50;99.90;;;;;;5036574;28;20228;-80
2020/12/04 11:23:34;;;;;;;18.70;9.57;;;5.50;99.90;;;;;;5036603;28;20192;-79
2020/12/04 11:25:59;;;;;;;20.90;10.67;;;5.50;99.90;;;;;;5036494;28;20212;-80
2020/12/04 11:28:25;;;;;;;21.67;9.50;;;5.70;99.90;;;;;;5003547;28;20208;-79
2020/12/04 11:30:51;;;;;;;14.87;9.10;;;5.50;99.90;;;;;;5037477;28;20257;-81
2020/12/04 11:33:16;;;;;;;18.53;10.27;;;5.70;99.90;;;;;;5037968;28;20173;-80
2020/12/04 11:35:42;;;;;;;19.67;10.87;;;5.60;99.90;;;;;;5020751;28;20193;-79
2020/12/04 11:38:08;;;;;;;20.30;11.13;;;5.60;99.90;;;;;;5028035;28;20237;-81
2020/12/04 11:40:34;;;;;;;20.25;9.57;;;5.70;99.90;;;;;;5047273;28;20549;-82
2020/12/04 11:43:01;;;;;;;20.63;10.07;;;5.70;99.90;;;;;;5040002;28;20169;-80
2020/12/04 11:45:27;;;;;;;15.75;9.73;;;5.70;99.90;;;;;;5038232;28;20279;-80
2020/12/04 11:47:53;;;;;;;19.47;9.60;;;5.70;99.90;;;;;;5021953;28;20181;-81
2020/12/04 11:50:18;;;;;;;15.38;10.45;;;5.80;99.90;;;;;;5040189;28;20216;-80
2020/12/04 11:52:44;;;;;;;14.73;8.20;;;5.80;99.90;;;;;;5039456;28;20177;-80
2020/12/04 11:55:11;;;;;;;16.93;10.40;;;5.80;99.90;;;;;;5039427;28;20185;-80
2020/12/04 11:57:39;;;;;;;18.50;10.32;;;5.90;99.90;;;;;;5036932;28;20178;-81
2020/12/04 12:00:13;;;;;;;16.67;10.20;;;5.70;99.90;;;;;;5037063;28;20248;-81
2020/12/04 12:02:39;;;;;;;15.57;9.80;;;5.80;99.90;;;;;;5035887;28;20311;-81
2020/12/04 12:05:06;;;;;;;15.48;9.48;;;5.80;99.90;;;;;;5033769;28;20829;-78
2020/12/04 12:07:31;;;;;;;17.02;9.30;;;5.80;99.90;;;;;;5032607;28;20272;-78
2020/12/04 12:09:57;;;;;;;15.67;10.53;;;5.80;99.90;;;;;;5032381;28;20276;-78
2020/12/04 12:12:23;;;;;;;16.43;10.13;;;5.80;99.90;;;;;;5033032;28;20180;-78
2020/12/04 12:14:48;;;;;;;13.00;8.77;;;5.90;99.90;;;;;;5037398;28;20189;-79
2020/12/04 12:17:15;;;;;;;17.17;9.77;;;5.80;99.90;;;;;;5045148;28;20185;-83
2020/12/04 12:19:41;;;;;;;16.90;9.80;;;5.70;99.90;;;;;;5039313;28;20173;-82
2020/12/04 12:22:11;;;;;;;17.10;9.90;;;5.70;99.90;;;;;;5038451;28;20193;-83
2020/12/04 12:24:41;;;;;;;19.27;9.02;;;5.70;99.90;;;;;;5042589;28;20204;-82
2020/12/04 12:27:08;;;;;;;20.13;9.20;;;5.80;99.90;;;;;;5024247;28;20585;-83
2020/12/04 12:29:34;;;;;;;13.65;8.50;;;5.80;99.90;;;;;;5041070;28;20213;-83
2020/12/04 12:32:03;;;;;;;18.40;10.38;;;5.70;99.90;;;;;;5039223;28;20181;-84
2020/12/04 12:37:14;;;;;;;16.65;9.23;;;5.70;99.90;;;;;;5042980;28;20242;-83
2020/12/04 12:39:43;;;;;;;22.67;12.15;;;5.80;99.90;;;;;;5042477;28;20607;-84
2020/12/04 12:42:18;;;;;;;15.35;9.43;;;5.90;99.90;;;;;;5042946;28;20182;-83
2020/12/04 12:44:44;;;;;;;19.25;11.20;;;5.80;99.90;;;;;;5046232;28;20192;-84
2020/12/04 12:47:14;;;;;;;19.80;11.13;;;5.80;99.90;;;;;;5042633;28;20223;-84
2020/12/04 12:49:45;;;;;;;18.33;10.82;;;5.90;99.90;;;;;;5043444;28;20209;-84
2020/12/04 12:52:12;;;;;;;16.92;10.38;;;5.90;99.90;;;;;;5024624;28;20227;-82